sensor_id;sensor_type;location;lat;lon;timestamp;pressure;altitude;pressure_sealevel;temperature;humidity
62038;BME280;47991;42.974;12.082;2024-02-15T00:00:00;98589.25;;;3.13;79.88
62038;BME280;47991;42.974;12.082;2024-02-15T00:02:27;98592.86;;;3.09;80.38
62038;BME280;47991;42.974;12.082;2024-02-15T00:04:54;98591.30;;;3.11;81.51
62038;BME280;47991;42.974;12.082;2024-02-15T00:07:22;98588.43;;;3.17;80.57
62038;BME280;47991;42.974;12.082;2024-02-15T00:09:50;98593.42;;;3.24;79.69
62038;BME280;47991;42.974;12.082;2024-02-15T00:12:17;98590.94;;;3.22;80.29
62038;BME280;47991;42.974;12.082;2024-02-15T00:14:44;98593.28;;;3.14;81.22
62038;BME280;47991;42.974;12.082;2024-02-15T00:17:11;98599.03;;;3.01;84.69
62038;BME280;47991;42.974;12.082;2024-02-15T00:19:38;98595.57;;;3.15;83.72
62038;BME280;47991;42.974;12.082;2024-02-15T00:22:08;98590.73;;;3.32;82.88
62038;BME280;47991;42.974;12.082;2024-02-15T00:24:37;98588.54;;;3.38;82.24
62038;BME280;47991;42.974;12.082;2024-02-15T00:27:05;98588.62;;;3.31;82.08
62038;BME280;47991;42.974;12.082;2024-02-15T00:29:32;98588.11;;;3.19;82.38
62038;BME280;47991;42.974;12.082;2024-02-15T00:32:01;98586.23;;;3.09;83.03
62038;BME280;47991;42.974;12.082;2024-02-15T00:34:28;98588.91;;;3.01;82.69
62038;BME280;47991;42.974;12.082;2024-02-15T00:36:55;98583.11;;;2.99;81.81
62038;BME280;47991;42.974;12.082;2024-02-15T00:39:22;98579.58;;;2.96;83.06
62038;BME280;47991;42.974;12.082;2024-02-15T00:41:49;98584.77;;;2.94;83.16
62038;BME280;47991;42.974;12.082;2024-02-15T00:44:16;98581.91;;;2.89;83.53
62038;BME280;47991;42.974;12.082;2024-02-15T00:46:44;98584.00;;;2.89;82.95
62038;BME280;47991;42.974;12.082;2024-02-15T00:49:11;98587.80;;;2.86;82.89
62038;BME280;47991;42.974;12.082;2024-02-15T00:51:39;98586.33;;;2.81;83.13
62038;BME280;47991;42.974;12.082;2024-02-15T00:54:06;98587.70;;;2.80;82.80
62038;BME280;47991;42.974;12.082;2024-02-15T00:56:33;98588.21;;;2.79;82.12
62038;BME280;47991;42.974;12.082;2024-02-15T00:59:00;98585.30;;;2.82;83.10
62038;BME280;47991;42.974;12.082;2024-02-15T01:01:30;98586.49;;;2.80;82.88
62038;BME280;47991;42.974;12.082;2024-02-15T01:03:57;98582.11;;;2.79;82.41
62038;BME280;47991;42.974;12.082;2024-02-15T01:06:25;98583.72;;;2.82;82.56
62038;BME280;47991;42.974;12.082;2024-02-15T01:08:52;98583.17;;;2.80;84.16
62038;BME280;47991;42.974;12.082;2024-02-15T01:11:19;98582.81;;;2.80;84.53
62038;BME280;47991;42.974;12.082;2024-02-15T01:13:46;98583.15;;;2.79;83.18
62038;BME280;47991;42.974;12.082;2024-02-15T01:16:13;98577.98;;;2.72;84.35
62038;BME280;47991;42.974;12.082;2024-02-15T01:18:41;98574.05;;;2.66;83.77
62038;BME280;47991;42.974;12.082;2024-02-15T01:21:08;98568.06;;;2.64;83.87
62038;BME280;47991;42.974;12.082;2024-02-15T01:23:35;98563.42;;;2.68;83.48
62038;BME280;47991;42.974;12.082;2024-02-15T01:26:05;98566.66;;;2.74;82.98
62038;BME280;47991;42.974;12.082;2024-02-15T01:28:32;98560.48;;;2.70;83.59
62038;BME280;47991;42.974;12.082;2024-02-15T01:30:59;98556.23;;;2.65;83.33
62038;BME280;47991;42.974;12.082;2024-02-15T01:33:26;98552.23;;;2.56;84.19
62038;BME280;47991;42.974;12.082;2024-02-15T01:35:53;98551.59;;;2.50;85.87
62038;BME280;47991;42.974;12.082;2024-02-15T01:38:20;98548.77;;;2.48;86.20
62038;BME280;47991;42.974;12.082;2024-02-15T01:40:47;98545.08;;;2.46;84.52
62038;BME280;47991;42.974;12.082;2024-02-15T01:43:14;98547.29;;;2.41;85.08
62038;BME280;47991;42.974;12.082;2024-02-15T01:45:42;98543.70;;;2.36;84.97
62038;BME280;47991;42.974;12.082;2024-02-15T01:48:10;98543.27;;;2.30;85.04
62038;BME280;47991;42.974;12.082;2024-02-15T01:50:37;98545.60;;;2.24;85.93
62038;BME280;47991;42.974;12.082;2024-02-15T01:53:07;98544.21;;;2.25;84.44
62038;BME280;47991;42.974;12.082;2024-02-15T01:55:38;98546.73;;;2.20;85.63
62038;BME280;47991;42.974;12.082;2024-02-15T01:58:07;98539.10;;;2.22;85.17
62038;BME280;47991;42.974;12.082;2024-02-15T02:00:35;98540.77;;;2.28;85.97
62038;BME280;47991;42.974;12.082;2024-02-15T02:03:05;98540.41;;;2.37;85.00
62038;BME280;47991;42.974;12.082;2024-02-15T02:05:32;98537.23;;;2.46;85.52
62038;BME280;47991;42.974;12.082;2024-02-15T02:07:59;98536.05;;;2.48;85.91
62038;BME280;47991;42.974;12.082;2024-02-15T02:10:31;98535.20;;;2.51;86.22
62038;BME280;47991;42.974;12.082;2024-02-15T02:13:00;98533.56;;;2.46;86.37
62038;BME280;47991;42.974;12.082;2024-02-15T02:15:33;98536.09;;;2.39;87.16
62038;BME280;47991;42.974;12.082;2024-02-15T02:18:01;98539.55;;;2.37;87.74
62038;BME280;47991;42.974;12.082;2024-02-15T02:20:29;98539.32;;;2.35;86.25
62038;BME280;47991;42.974;12.082;2024-02-15T02:23:09;98549.00;;;2.29;85.75
62038;BME280;47991;42.974;12.082;2024-02-15T02:25:40;98544.13;;;2.30;87.04
62038;BME280;47991;42.974;12.082;2024-02-15T02:28:11;98546.03;;;2.30;86.28
62038;BME280;47991;42.974;12.082;2024-02-15T02:30:38;98544.03;;;2.25;86.57
62038;BME280;47991;42.974;12.082;2024-02-15T02:33:12;98547.94;;;2.18;86.43
62038;BME280;47991;42.974;12.082;2024-02-15T02:35:45;98546.67;;;2.16;87.31
62038;BME280;47991;42.974;12.082;2024-02-15T02:38:13;98542.66;;;2.16;86.43
62038;BME280;47991;42.974;12.082;2024-02-15T02:40:41;98543.77;;;2.19;85.96
62038;BME280;47991;42.974;12.082;2024-02-15T02:43:08;98543.46;;;2.21;87.58
62038;BME280;47991;42.974;12.082;2024-02-15T02:45:36;98543.43;;;2.20;87.66
62038;BME280;47991;42.974;12.082;2024-02-15T02:48:04;98545.87;;;2.19;87.10
62038;BME280;47991;42.974;12.082;2024-02-15T02:50:31;98545.83;;;2.17;86.19
62038;BME280;47991;42.974;12.082;2024-02-15T02:52:59;98543.58;;;2.08;87.49
62038;BME280;47991;42.974;12.082;2024-02-15T02:55:26;98541.87;;;2.01;87.52
62038;BME280;47991;42.974;12.082;2024-02-15T02:57:57;98544.13;;;2.00;87.12
62038;BME280;47991;42.974;12.082;2024-02-15T03:00:24;98541.88;;;2.01;87.41
62038;BME280;47991;42.974;12.082;2024-02-15T03:02:51;98545.22;;;2.02;87.22
62038;BME280;47991;42.974;12.082;2024-02-15T03:05:18;98547.15;;;2.04;87.91
62038;BME280;47991;42.974;12.082;2024-02-15T03:07:47;98547.02;;;2.05;87.10
62038;BME280;47991;42.974;12.082;2024-02-15T03:10:15;98543.02;;;2.06;87.93
62038;BME280;47991;42.974;12.082;2024-02-15T03:12:43;98543.60;;;2.10;89.20
62038;BME280;47991;42.974;12.082;2024-02-15T03:15:14;98540.02;;;2.14;88.94
62038;BME280;47991;42.974;12.082;2024-02-15T03:17:42;98538.61;;;2.14;90.05
62038;BME280;47991;42.974;12.082;2024-02-15T03:20:11;98541.39;;;2.13;89.73
62038;BME280;47991;42.974;12.082;2024-02-15T03:22:54;98537.09;;;2.17;88.84
62038;BME280;47991;42.974;12.082;2024-02-15T03:25:22;98529.84;;;2.21;88.51
62038;BME280;47991;42.974;12.082;2024-02-15T03:27:53;98540.92;;;2.16;88.38
62038;BME280;47991;42.974;12.082;2024-02-15T03:30:23;98546.73;;;2.08;87.07
62038;BME280;47991;42.974;12.082;2024-02-15T03:32:51;98548.19;;;2.03;88.10
62038;BME280;47991;42.974;12.082;2024-02-15T03:35:20;98545.33;;;1.99;88.29
62038;BME280;47991;42.974;12.082;2024-02-15T03:37:49;98545.49;;;1.98;88.81
62038;BME280;47991;42.974;12.082;2024-02-15T03:40:20;98541.61;;;1.96;88.90
62038;BME280;47991;42.974;12.082;2024-02-15T03:42:47;98536.89;;;1.95;88.01
62038;BME280;47991;42.974;12.082;2024-02-15T03:45:15;98534.77;;;1.94;88.06
62038;BME280;47991;42.974;12.082;2024-02-15T03:47:42;98532.13;;;1.92;87.86
62038;BME280;47991;42.974;12.082;2024-02-15T03:50:10;98530.25;;;1.95;88.39
62038;BME280;47991;42.974;12.082;2024-02-15T03:52:38;98530.88;;;2.00;88.35
62038;BME280;47991;42.974;12.082;2024-02-15T03:55:06;98532.27;;;2.00;87.68
62038;BME280;47991;42.974;12.082;2024-02-15T03:57:39;98529.41;;;1.96;87.40
62038;BME280;47991;42.974;12.082;2024-02-15T04:00:08;98532.59;;;1.89;88.00
62038;BME280;47991;42.974;12.082;2024-02-15T04:02:37;98531.91;;;1.81;88.07
62038;BME280;47991;42.974;12.082;2024-02-15T04:05:07;98529.42;;;1.78;89.14
62038;BME280;47991;42.974;12.082;2024-02-15T04:07:36;98527.94;;;1.82;89.49
62038;BME280;47991;42.974;12.082;2024-02-15T04:10:05;98527.70;;;1.80;88.94
62038;BME280;47991;42.974;12.082;2024-02-15T04:12:33;98526.65;;;1.78;88.39
62038;BME280;47991;42.974;12.082;2024-02-15T04:15:00;98526.95;;;1.76;88.37
62038;BME280;47991;42.974;12.082;2024-02-15T04:17:32;98525.83;;;1.72;88.71
62038;BME280;47991;42.974;12.082;2024-02-15T04:20:01;98525.14;;;1.72;88.49
62038;BME280;47991;42.974;12.082;2024-02-15T04:22:30;98528.92;;;1.70;88.79
62038;BME280;47991;42.974;12.082;2024-02-15T04:25:05;98530.96;;;1.67;88.09
62038;BME280;47991;42.974;12.082;2024-02-15T04:27:45;98533.52;;;1.64;88.87
62038;BME280;47991;42.974;12.082;2024-02-15T04:30:16;98533.14;;;1.63;89.14
62038;BME280;47991;42.974;12.082;2024-02-15T04:32:43;98533.86;;;1.64;88.90
62038;BME280;47991;42.974;12.082;2024-02-15T04:35:10;98533.54;;;1.65;89.31
62038;BME280;47991;42.974;12.082;2024-02-15T04:37:38;98535.23;;;1.63;88.45
62038;BME280;47991;42.974;12.082;2024-02-15T04:40:06;98537.39;;;1.65;88.11
62038;BME280;47991;42.974;12.082;2024-02-15T04:42:36;98537.56;;;1.66;88.19
62038;BME280;47991;42.974;12.082;2024-02-15T04:45:09;98542.15;;;1.59;88.49
62038;BME280;47991;42.974;12.082;2024-02-15T04:47:43;98545.34;;;1.54;89.59
62038;BME280;47991;42.974;12.082;2024-02-15T04:50:12;98548.16;;;1.56;90.47
62038;BME280;47991;42.974;12.082;2024-02-15T04:52:39;98549.66;;;1.61;89.49
62038;BME280;47991;42.974;12.082;2024-02-15T04:55:07;98552.54;;;1.65;89.10
62038;BME280;47991;42.974;12.082;2024-02-15T04:57:34;98553.02;;;1.63;89.54
62038;BME280;47991;42.974;12.082;2024-02-15T05:00:04;98555.80;;;1.54;89.55
62038;BME280;47991;42.974;12.082;2024-02-15T05:02:37;98552.63;;;1.44;89.79
62038;BME280;47991;42.974;12.082;2024-02-15T05:05:07;98549.52;;;1.36;89.30
62038;BME280;47991;42.974;12.082;2024-02-15T05:07:35;98548.54;;;1.40;89.70
62038;BME280;47991;42.974;12.082;2024-02-15T05:10:06;98548.61;;;1.43;90.03
62038;BME280;47991;42.974;12.082;2024-02-15T05:12:34;98547.23;;;1.44;88.91
62038;BME280;47991;42.974;12.082;2024-02-15T05:15:02;98548.45;;;1.44;88.98
62038;BME280;47991;42.974;12.082;2024-02-15T05:17:40;98557.73;;;1.45;89.54
62038;BME280;47991;42.974;12.082;2024-02-15T05:20:11;98552.38;;;1.49;90.14
62038;BME280;47991;42.974;12.082;2024-02-15T05:22:40;98547.44;;;1.54;89.94
62038;BME280;47991;42.974;12.082;2024-02-15T05:25:12;98545.77;;;1.59;89.69
62038;BME280;47991;42.974;12.082;2024-02-15T05:27:39;98546.38;;;1.62;90.43
62038;BME280;47991;42.974;12.082;2024-02-15T05:30:08;98542.54;;;1.62;89.27
62038;BME280;47991;42.974;12.082;2024-02-15T05:32:37;98543.67;;;1.58;89.03
62038;BME280;47991;42.974;12.082;2024-02-15T05:35:10;98543.13;;;1.48;88.86
62038;BME280;47991;42.974;12.082;2024-02-15T05:37:38;98541.81;;;1.35;88.82
62038;BME280;47991;42.974;12.082;2024-02-15T05:40:06;98543.17;;;1.25;89.37
62038;BME280;47991;42.974;12.082;2024-02-15T05:42:33;98537.64;;;1.18;89.80
62038;BME280;47991;42.974;12.082;2024-02-15T05:47:52;98539.20;;;1.10;89.64
62038;BME280;47991;42.974;12.082;2024-02-15T05:50:20;98548.02;;;1.06;89.66
62038;BME280;47991;42.974;12.082;2024-02-15T05:52:48;98557.41;;;1.06;89.56
62038;BME280;47991;42.974;12.082;2024-02-15T05:55:15;98560.88;;;1.05;89.44
62038;BME280;47991;42.974;12.082;2024-02-15T05:57:43;98563.77;;;1.02;89.42
62038;BME280;47991;42.974;12.082;2024-02-15T06:00:11;98566.34;;;1.01;89.60
62038;BME280;47991;42.974;12.082;2024-02-15T06:02:39;98569.36;;;1.03;90.33
62038;BME280;47991;42.974;12.082;2024-02-15T06:05:07;98576.04;;;1.06;88.96
62038;BME280;47991;42.974;12.082;2024-02-15T06:07:37;98575.33;;;1.05;90.55
62038;BME280;47991;42.974;12.082;2024-02-15T06:10:04;98582.71;;;1.09;90.44
62038;BME280;47991;42.974;12.082;2024-02-15T06:12:34;98579.99;;;1.12;90.37
62038;BME280;47991;42.974;12.082;2024-02-15T06:15:03;98583.89;;;1.15;89.97
62038;BME280;47991;42.974;12.082;2024-02-15T06:17:32;98587.88;;;1.14;89.91
62038;BME280;47991;42.974;12.082;2024-02-15T06:19:59;98590.81;;;1.12;89.83
62038;BME280;47991;42.974;12.082;2024-02-15T06:22:26;98590.85;;;1.07;90.35
62038;BME280;47991;42.974;12.082;2024-02-15T06:24:53;98589.40;;;1.04;90.82
62038;BME280;47991;42.974;12.082;2024-02-15T06:27:20;98592.77;;;1.07;90.63
62038;BME280;47991;42.974;12.082;2024-02-15T06:29:47;98591.11;;;1.10;90.24
62038;BME280;47991;42.974;12.082;2024-02-15T06:32:33;98583.12;;;1.11;89.92
62038;BME280;47991;42.974;12.082;2024-02-15T06:35:18;98580.73;;;1.14;90.35
62038;BME280;47991;42.974;12.082;2024-02-15T06:38:04;98579.20;;;1.23;90.16
62038;BME280;47991;42.974;12.082;2024-02-15T06:40:50;98581.89;;;1.43;91.09
62038;BME280;47991;42.974;12.082;2024-02-15T06:43:17;98578.23;;;1.87;91.68
62038;BME280;47991;42.974;12.082;2024-02-15T06:45:44;98579.95;;;2.64;91.86
62038;BME280;47991;42.974;12.082;2024-02-15T06:48:13;98579.98;;;3.39;89.76
62038;BME280;47991;42.974;12.082;2024-02-15T06:50:40;98583.48;;;3.79;88.12
62038;BME280;47991;42.974;12.082;2024-02-15T06:53:07;98583.98;;;3.78;86.45
62038;BME280;47991;42.974;12.082;2024-02-15T06:55:37;98586.35;;;3.71;86.18
62038;BME280;47991;42.974;12.082;2024-02-15T06:58:05;98586.66;;;3.83;86.40
62038;BME280;47991;42.974;12.082;2024-02-15T07:00:33;98588.92;;;4.13;86.97
62038;BME280;47991;42.974;12.082;2024-02-15T07:03:00;98590.39;;;4.40;86.93
62038;BME280;47991;42.974;12.082;2024-02-15T07:05:27;98591.45;;;4.21;86.25
62038;BME280;47991;42.974;12.082;2024-02-15T07:07:54;98588.84;;;4.06;86.96
62038;BME280;47991;42.974;12.082;2024-02-15T07:39:57;98568.91;;;5.46;87.68
62038;BME280;47991;42.974;12.082;2024-02-15T07:42:25;98567.91;;;5.56;87.16
62038;BME280;47991;42.974;12.082;2024-02-15T07:44:53;98566.36;;;5.61;86.74
62038;BME280;47991;42.974;12.082;2024-02-15T07:47:20;98568.48;;;5.66;86.58
62038;BME280;47991;42.974;12.082;2024-02-15T07:49:50;98572.52;;;5.70;86.58
62038;BME280;47991;42.974;12.082;2024-02-15T07:52:18;98575.35;;;5.74;86.60
62038;BME280;47991;42.974;12.082;2024-02-15T07:54:46;98571.33;;;5.79;86.31
62038;BME280;47991;42.974;12.082;2024-02-15T07:57:13;98572.06;;;5.82;86.21
62038;BME280;47991;42.974;12.082;2024-02-15T07:59:40;98569.79;;;5.89;86.49
62038;BME280;47991;42.974;12.082;2024-02-15T08:02:08;98570.73;;;6.01;86.66
62038;BME280;47991;42.974;12.082;2024-02-15T08:04:36;98571.13;;;6.14;86.42
62038;BME280;47991;42.974;12.082;2024-02-15T08:07:07;98572.71;;;6.28;85.79
62038;BME280;47991;42.974;12.082;2024-02-15T08:09:37;98571.69;;;6.33;87.01
62038;BME280;47991;42.974;12.082;2024-02-15T08:12:05;98566.43;;;6.51;86.61
62038;BME280;47991;42.974;12.082;2024-02-15T08:14:32;98569.25;;;6.69;85.88
62038;BME280;47991;42.974;12.082;2024-02-15T08:16:59;98569.43;;;6.79;85.73
62038;BME280;47991;42.974;12.082;2024-02-15T08:19:26;98568.38;;;6.70;85.42
62038;BME280;47991;42.974;12.082;2024-02-15T08:21:55;98568.90;;;6.71;85.13
62038;BME280;47991;42.974;12.082;2024-02-15T08:24:23;98572.93;;;6.65;84.09
62038;BME280;47991;42.974;12.082;2024-02-15T08:26:50;98573.65;;;6.67;84.54
62038;BME280;47991;42.974;12.082;2024-02-15T08:29:17;98574.34;;;6.70;85.15
62038;BME280;47991;42.974;12.082;2024-02-15T08:31:44;98570.13;;;6.74;83.67
62038;BME280;47991;42.974;12.082;2024-02-15T08:34:11;98566.27;;;6.81;82.89
62038;BME280;47991;42.974;12.082;2024-02-15T08:36:40;98560.10;;;6.86;81.74
62038;BME280;47991;42.974;12.082;2024-02-15T08:39:08;98564.33;;;6.85;81.61
62038;BME280;47991;42.974;12.082;2024-02-15T08:41:38;98560.45;;;6.89;81.27
62038;BME280;47991;42.974;12.082;2024-02-15T08:44:05;98559.75;;;6.93;81.49
62038;BME280;47991;42.974;12.082;2024-02-15T08:46:38;98565.86;;;7.16;82.01
62038;BME280;47991;42.974;12.082;2024-02-15T08:49:05;98564.27;;;7.25;80.84
62038;BME280;47991;42.974;12.082;2024-02-15T08:51:32;98566.66;;;7.50;80.73
62038;BME280;47991;42.974;12.082;2024-02-15T08:53:59;98564.64;;;7.69;81.18
62038;BME280;47991;42.974;12.082;2024-02-15T08:56:26;98558.55;;;8.52;78.89
62038;BME280;47991;42.974;12.082;2024-02-15T08:58:53;98557.37;;;9.28;74.17
62038;BME280;47991;42.974;12.082;2024-02-15T09:01:20;98559.27;;;10.06;70.75
62038;BME280;47991;42.974;12.082;2024-02-15T09:03:47;98553.56;;;10.23;70.37
62038;BME280;47991;42.974;12.082;2024-02-15T09:06:14;98557.55;;;10.15;68.96
62038;BME280;47991;42.974;12.082;2024-02-15T09:08:42;98556.06;;;9.95;70.25
62038;BME280;47991;42.974;12.082;2024-02-15T09:11:09;98549.20;;;10.67;68.61
62038;BME280;47991;42.974;12.082;2024-02-15T09:13:39;98551.83;;;11.91;64.68
62038;BME280;47991;42.974;12.082;2024-02-15T09:16:06;98542.97;;;13.34;60.44
62038;BME280;47991;42.974;12.082;2024-02-15T09:18:33;98541.56;;;13.61;60.17
62038;BME280;47991;42.974;12.082;2024-02-15T09:21:00;98539.71;;;13.09;58.35
62038;BME280;47991;42.974;12.082;2024-02-15T09:23:27;98538.54;;;12.93;60.79
62038;BME280;47991;42.974;12.082;2024-02-15T09:25:54;98539.67;;;13.77;58.29
62038;BME280;47991;42.974;12.082;2024-02-15T09:28:21;98539.15;;;13.17;57.27
62038;BME280;47991;42.974;12.082;2024-02-15T09:30:51;98539.05;;;13.07;60.90
62038;BME280;47991;42.974;12.082;2024-02-15T09:33:21;98536.40;;;13.72;55.71
62038;BME280;47991;42.974;12.082;2024-02-15T09:35:48;98529.13;;;14.98;55.58
62038;BME280;47991;42.974;12.082;2024-02-15T09:38:15;98534.02;;;14.29;54.25
62038;BME280;47991;42.974;12.082;2024-02-15T09:40:44;98534.46;;;14.38;54.01
62038;BME280;47991;42.974;12.082;2024-02-15T09:43:11;98535.21;;;14.53;52.88
62038;BME280;47991;42.974;12.082;2024-02-15T09:45:42;98539.41;;;13.80;55.26
62038;BME280;47991;42.974;12.082;2024-02-15T09:48:10;98542.55;;;14.00;55.51
62038;BME280;47991;42.974;12.082;2024-02-15T09:50:39;98541.48;;;14.64;54.23
62038;BME280;47991;42.974;12.082;2024-02-15T09:53:12;98537.80;;;14.27;53.84
62038;BME280;47991;42.974;12.082;2024-02-15T09:55:40;98537.77;;;14.52;52.27
62038;BME280;47991;42.974;12.082;2024-02-15T09:58:10;98537.34;;;15.24;51.17
62038;BME280;47991;42.974;12.082;2024-02-15T10:00:39;98537.23;;;15.62;49.93
62038;BME280;47991;42.974;12.082;2024-02-15T10:03:06;98534.94;;;15.86;50.07
62038;BME280;47991;42.974;12.082;2024-02-15T10:05:36;98532.45;;;15.66;48.38
62038;BME280;47991;42.974;12.082;2024-02-15T10:08:06;98530.01;;;14.77;49.92
62038;BME280;47991;42.974;12.082;2024-02-15T10:10:34;98533.08;;;14.77;51.65
62038;BME280;47991;42.974;12.082;2024-02-15T10:13:02;98533.11;;;14.86;51.62
62038;BME280;47991;42.974;12.082;2024-02-15T10:15:37;98532.32;;;14.94;50.49
62038;BME280;47991;42.974;12.082;2024-02-15T10:18:10;98529.59;;;14.57;51.47
62038;BME280;47991;42.974;12.082;2024-02-15T10:20:39;98526.42;;;14.22;53.85
62038;BME280;47991;42.974;12.082;2024-02-15T10:25:38;98527.85;;;13.86;54.08
62038;BME280;47991;42.974;12.082;2024-02-15T10:28:10;98529.26;;;13.36;54.94
62038;BME280;47991;42.974;12.082;2024-02-15T10:30:42;98523.27;;;13.00;55.61
62038;BME280;47991;42.974;12.082;2024-02-15T10:33:10;98521.77;;;12.82;55.98
62038;BME280;47991;42.974;12.082;2024-02-15T10:35:45;98517.67;;;12.69;55.08
62038;BME280;47991;42.974;12.082;2024-02-15T10:38:12;98515.36;;;12.54;55.29
62038;BME280;47991;42.974;12.082;2024-02-15T10:40:41;98512.62;;;12.65;55.39
62038;BME280;47991;42.974;12.082;2024-02-15T10:43:10;98509.95;;;12.80;55.47
62038;BME280;47991;42.974;12.082;2024-02-15T10:45:39;98505.48;;;12.87;55.07
62038;BME280;47991;42.974;12.082;2024-02-15T10:48:08;98506.27;;;12.84;54.92
62038;BME280;47991;42.974;12.082;2024-02-15T10:50:36;98497.15;;;13.07;55.00
62038;BME280;47991;42.974;12.082;2024-02-15T10:53:22;98492.98;;;13.10;54.87
62038;BME280;47991;42.974;12.082;2024-02-15T10:58:19;98480.83;;;13.27;53.70
62038;BME280;47991;42.974;12.082;2024-02-15T11:00:49;98473.41;;;13.32;54.60
62038;BME280;47991;42.974;12.082;2024-02-15T11:03:34;98472.80;;;13.42;54.40
62038;BME280;47991;42.974;12.082;2024-02-15T11:06:05;98472.97;;;13.36;54.97
62038;BME280;47991;42.974;12.082;2024-02-15T11:08:35;98466.13;;;13.46;54.50
62038;BME280;47991;42.974;12.082;2024-02-15T11:11:03;98457.77;;;13.52;53.30
62038;BME280;47991;42.974;12.082;2024-02-15T11:13:31;98451.09;;;13.43;53.92
62038;BME280;47991;42.974;12.082;2024-02-15T11:16:00;98446.45;;;13.50;53.09
62038;BME280;47991;42.974;12.082;2024-02-15T11:18:48;98439.79;;;13.53;53.31
62038;BME280;47991;42.974;12.082;2024-02-15T11:21:16;98439.87;;;13.63;53.64
62038;BME280;47991;42.974;12.082;2024-02-15T11:23:44;98437.15;;;13.64;52.77
62038;BME280;47991;42.974;12.082;2024-02-15T11:26:44;98437.26;;;13.72;52.99
62038;BME280;47991;42.974;12.082;2024-02-15T11:32:37;98420.88;;;13.96;53.06
62038;BME280;47991;42.974;12.082;2024-02-15T11:35:07;98417.67;;;14.41;51.56
62038;BME280;47991;42.974;12.082;2024-02-15T11:43:08;98409.45;;;14.42;50.61
62038;BME280;47991;42.974;12.082;2024-02-15T11:45:37;98405.52;;;14.43;49.93
62038;BME280;47991;42.974;12.082;2024-02-15T11:48:11;98403.98;;;14.41;49.64
62038;BME280;47991;42.974;12.082;2024-02-15T11:50:39;98404.21;;;14.34;49.66
62038;BME280;47991;42.974;12.082;2024-02-15T11:53:07;98400.86;;;14.43;50.22
62038;BME280;47991;42.974;12.082;2024-02-15T11:55:38;98398.00;;;14.54;49.05
62038;BME280;47991;42.974;12.082;2024-02-15T11:58:07;98395.64;;;14.73;50.16
62038;BME280;47991;42.974;12.082;2024-02-15T12:00:36;98390.48;;;15.16;47.91
62038;BME280;47991;42.974;12.082;2024-02-15T12:03:23;98378.23;;;15.81;46.68
62038;BME280;47991;42.974;12.082;2024-02-15T12:06:08;98375.12;;;15.93;46.74
62038;BME280;47991;42.974;12.082;2024-02-15T12:08:55;98371.16;;;15.89;47.57
62038;BME280;47991;42.974;12.082;2024-02-15T12:11:40;98366.20;;;15.97;48.53
62038;BME280;47991;42.974;12.082;2024-02-15T12:14:26;98360.50;;;16.10;49.03
62038;BME280;47991;42.974;12.082;2024-02-15T12:17:12;98358.34;;;16.02;49.54
62038;BME280;47991;42.974;12.082;2024-02-15T12:20:03;98354.95;;;16.06;50.35
62038;BME280;47991;42.974;12.082;2024-02-15T12:22:47;98354.65;;;16.00;49.72
62038;BME280;47991;42.974;12.082;2024-02-15T12:25:16;98349.77;;;15.97;51.12
62038;BME280;47991;42.974;12.082;2024-02-15T12:27:44;98344.92;;;15.99;50.11
62038;BME280;47991;42.974;12.082;2024-02-15T12:30:15;98342.10;;;15.98;50.05
62038;BME280;47991;42.974;12.082;2024-02-15T12:32:49;98336.49;;;16.00;49.86
62038;BME280;47991;42.974;12.082;2024-02-15T12:35:20;98335.54;;;16.10;49.34
62038;BME280;47991;42.974;12.082;2024-02-15T12:38:01;98331.65;;;16.55;48.85
62038;BME280;47991;42.974;12.082;2024-02-15T12:40:34;98323.33;;;16.99;46.12
62038;BME280;47991;42.974;12.082;2024-02-15T12:43:01;98316.36;;;17.26;45.88
62038;BME280;47991;42.974;12.082;2024-02-15T12:45:32;98311.36;;;17.56;45.77
62038;BME280;47991;42.974;12.082;2024-02-15T12:48:04;98303.80;;;17.53;46.64
62038;BME280;47991;42.974;12.082;2024-02-15T12:50:32;98305.35;;;17.77;46.46
62038;BME280;47991;42.974;12.082;2024-02-15T12:53:01;98303.60;;;17.84;46.26
62038;BME280;47991;42.974;12.082;2024-02-15T12:55:33;98303.39;;;17.62;45.23
62038;BME280;47991;42.974;12.082;2024-02-15T12:58:03;98305.41;;;17.50;45.58
62038;BME280;47991;42.974;12.082;2024-02-15T13:00:31;98302.94;;;17.23;45.54
62038;BME280;47991;42.974;12.082;2024-02-15T13:03:02;98298.16;;;16.90;44.65
62038;BME280;47991;42.974;12.082;2024-02-15T13:05:31;98295.99;;;16.62;43.59
62038;BME280;47991;42.974;12.082;2024-02-15T13:07:58;98293.42;;;16.76;45.84
62038;BME280;47991;42.974;12.082;2024-02-15T13:10:25;98285.96;;;16.95;44.72
62038;BME280;47991;42.974;12.082;2024-02-15T13:12:53;98283.75;;;17.16;44.50
62038;BME280;47991;42.974;12.082;2024-02-15T13:15:23;98284.13;;;17.53;44.94
62038;BME280;47991;42.974;12.082;2024-02-15T13:17:54;98283.86;;;17.93;41.97
62038;BME280;47991;42.974;12.082;2024-02-15T13:20:23;98279.42;;;18.17;43.45
62038;BME280;47991;42.974;12.082;2024-02-15T13:23:02;98274.64;;;18.06;42.14
62038;BME280;47991;42.974;12.082;2024-02-15T13:25:38;98273.26;;;17.97;42.17
62038;BME280;47991;42.974;12.082;2024-02-15T13:28:06;98272.13;;;17.87;41.51
62038;BME280;47991;42.974;12.082;2024-02-15T13:30:36;98272.17;;;17.79;41.14
62038;BME280;47991;42.974;12.082;2024-02-15T13:33:03;98271.67;;;17.89;42.43
62038;BME280;47991;42.974;12.082;2024-02-15T13:35:32;98269.30;;;17.83;42.06
62038;BME280;47991;42.974;12.082;2024-02-15T13:37:59;98263.69;;;17.77;42.11
62038;BME280;47991;42.974;12.082;2024-02-15T13:40:27;98261.88;;;17.74;42.51
62038;BME280;47991;42.974;12.082;2024-02-15T13:42:59;98257.52;;;17.68;44.00
62038;BME280;47991;42.974;12.082;2024-02-15T13:45:40;98255.51;;;17.76;43.96
62038;BME280;47991;42.974;12.082;2024-02-15T13:48:07;98256.81;;;18.04;43.90
62038;BME280;47991;42.974;12.082;2024-02-15T13:50:36;98254.34;;;18.42;44.42
62038;BME280;47991;42.974;12.082;2024-02-15T13:53:04;98255.59;;;18.65;43.15
62038;BME280;47991;42.974;12.082;2024-02-15T13:55:31;98247.23;;;18.58;41.40